METAR Data
IDs: Format: Raw Decoded Include TAF

Data at: 0301 UTC 12 Dec 2018

PHNL 120253Z 06017G23KT 10SM FEW024 FEW046 SCT070 26/19 A3013 RMK AO2 PK WND 06026/0224 SLP203 T02610189 53002
PHNL 120153Z 06018G25KT 10SM FEW025 SCT044 BKN060 27/19 A3012 RMK AO2 SLP200 VCSH NW-N T02670189

PHNL 112343Z 1200/1306 06015G25KT P6SM VCSH FEW020 SCT030 BKN050
  FM120800 06014G22KT P6SM SCT035 SCT070
  FM121200 06010KT P6SM SCT030 SCT045
  FM122100 06015G25KT P6SM SCT030 SCT050


PHOG 120254Z 05015G30KT 10SM FEW030 SCT050 26/19 A3012 RMK AO2 PK WND 06034/0229 SLP205 T02560194 53016
PHOG 120154Z 05022G28KT 10SM FEW030 SCT050 27/20 A3010 RMK AO2 PK WND 05035/0116 SLP196 T02720200

PHOG 112343Z 1200/1224 06021G30KT P6SM FEW025 SCT040 SCT070
  FM120600 06016G24KT P6SM VCSH FEW025 SCT040
  FM121200 05012G21KT P6SM VCSH FEW025 SCT035
  FM122100 05019G27KT P6SM VCSH FEW025 SCT040 AMD LTD TO VIS AND WIND 1209/1216


PHKO 120253Z VRB06KT 10SM CLR 26/20 A3008 RMK AO2 SLP186 T02610200 53011
PHKO 120153Z 21009KT 10SM SCT060 SCT200 27/19 A3006 RMK AO2 SLP180 T02670189

PHKO 112343Z 1200/1224 20010KT P6SM FEW045 SCT070
  FM120600 12007KT P6SM FEW035
  FM122100 23008KT P6SM FEW045 SCT050


PHTO 120253Z 35003KT 10SM FEW028 SCT048 SCT060 24/19 A3016 RMK AO2 RAB32E45 SLP213 P0001 60001 T02390194 53005
PHTO 120153Z 06004KT 10SM FEW039 26/19 A3015 RMK AO2 SLP207 T02560194

PHTO 112343Z 1200/1224 06008KT P6SM VCSH SCT025 BKN040
  FM121000 23008KT P6SM VCSH SCT025 BKN040
  FM122100 02009KT P6SM VCSH SCT030 SCT040


PHLI 120253Z 04018G26KT 10SM FEW018 BKN025 BKN031 24/19 A3019 RMK AO2 PK WND 04028/0226 RAB29E40 SLP220 P0000 60000 T02390189 55001
PHLI 120153Z 04020KT 9SM SCT017 BKN025 OVC044 24/18 A3018 RMK AO2 PK WND 05027/0057 RAB0059E10 SLP218 P0000 T02440183

PHLI 112343Z 1200/1224 05015G25KT P6SM SCT025 BKN035
  FM120600 05020G28KT P6SM -SHRA FEW015 BKN025 OVC035
  FM121200 07016G25KT P6SM VCSH SCT025 BKN035